Time;durP1;ratioP1;P1;durP2;ratioP2;P2;SDS_P1;SDS_P2;PMS_P1;PMS_P2;Temp;Humidity;BMP_temperature;BMP_pressure;BME280_temperature;BME280_humidity;BME280_pressure;Samples;Min_cycle;Max_cycle;Signal;HPM_P1;HPM_P2
2022/10/29 00:01:21;;;;;;;17.15;4.82;;;;;;;12.03;96.79;100490.03;4951836;28;20051;-43
2022/10/29 00:03:57;;;;;;;25.17;5.13;;;;;;;12.03;97.11;100487.25;4952101;28;20105;-43
2022/10/29 00:06:24;;;;;;;20.90;4.68;;;;;;;12.03;97.13;100493.63;4952365;28;20138;-44
2022/10/29 00:08:50;;;;;;;30.27;6.68;;;;;;;12.04;97.13;100495.22;4951920;28;20047;-43
2022/10/29 00:11:20;;;;;;;33.80;5.30;;;;;;;12.04;97.39;100494.44;4952013;28;20039;-45
2022/10/29 00:13:51;;;;;;;17.27;3.97;;;;;;;12.03;97.34;100499.16;4952254;28;20139;-43
2022/10/29 00:16:20;;;;;;;20.83;4.72;;;;;;;12.03;97.68;100490.84;4951986;28;20039;-44
2022/10/29 00:18:47;;;;;;;21.40;4.30;;;;;;;12.05;97.75;100498.78;4952335;28;20401;-44
2022/10/29 00:21:17;;;;;;;20.33;4.32;;;;;;;12.05;98.05;100490.47;4950253;28;20052;-43
2022/10/29 00:23:44;;;;;;;25.48;4.03;;;;;;;12.04;98.24;100495.22;4951922;28;20458;-47
2022/10/29 00:26:12;;;;;;;18.27;4.05;;;;;;;12.05;98.08;100476.59;4951549;28;20130;-43
2022/10/29 00:28:38;;;;;;;13.95;3.63;;;;;;;12.07;98.30;100474.28;4951971;28;20131;-45
2022/10/29 00:31:23;;;;;;;19.73;3.83;;;;;;;12.07;98.28;100472.28;4952006;28;20051;-43
2022/10/29 00:33:51;;;;;;;27.80;4.78;;;;;;;12.07;98.63;100468.72;4941313;29;20047;-45
2022/10/29 00:36:21;;;;;;;20.55;3.65;;;;;;;12.07;98.66;100463.97;4951458;28;20043;-43
2022/10/29 00:38:48;;;;;;;27.98;6.85;;;;;;;12.08;98.72;100473.09;4951388;28;20057;-46
2022/10/29 00:41:18;;;;;;;36.97;7.20;;;;;;;12.05;99.01;100466.31;4950993;29;20055;-46
2022/10/29 00:44:14;;;;;;;37.33;7.40;;;;;;;12.04;98.80;100463.91;4951149;28;20047;-45
2022/10/29 00:46:54;;;;;;;23.67;3.72;;;;;;;12.04;98.99;100469.44;4952792;28;20413;-47
2022/10/29 00:49:23;;;;;;;24.75;4.10;;;;;;;12.03;99.12;100473.38;4951827;28;20054;-47
2022/10/29 00:51:51;;;;;;;24.63;4.85;;;;;;;12.02;99.33;100474.56;4951469;28;20775;-47
2022/10/29 00:54:17;;;;;;;20.50;4.32;;;;;;;12.02;99.25;100482.88;4951393;28;20521;-44
2022/10/29 00:56:50;;;;;;;22.15;4.95;;;;;;;12.03;99.52;100487.25;4950722;28;20079;-44
2022/10/29 00:59:17;;;;;;;24.63;4.35;;;;;;;12.03;99.76;100484.47;4951164;28;20043;-44
2022/10/29 01:01:47;;;;;;;20.33;4.88;;;;;;;12.05;99.70;100473.81;4951419;28;20055;-51
2022/10/29 01:04:16;;;;;;;28.52;4.15;;;;;;;12.08;100.00;100478.66;4951048;28;20070;-43
2022/10/29 01:06:43;;;;;;;18.42;4.00;;;;;;;12.09;99.96;100477.50;4951278;28;20054;-43
2022/10/29 01:09:10;;;;;;;24.23;4.82;;;;;;;12.09;100.00;100469.16;4951077;28;20070;-49
2022/10/29 01:11:53;;;;;;;20.58;4.60;;;;;;;12.11;100.00;100477.94;4949856;28;20051;-43
2022/10/29 01:14:58;;;;;;;23.63;5.22;;;;;;;12.12;100.00;100474.00;4950776;28;20055;-45
2022/10/29 01:17:55;;;;;;;14.45;3.45;;;;;;;12.14;100.00;100474.44;4958537;28;20047;-44
2022/10/29 01:20:39;;;;;;;25.40;4.68;;;;;;;12.15;100.00;100467.72;4950545;28;20040;-44
2022/10/29 01:24:00;;;;;;;24.08;4.18;;;;;;;12.16;100.00;100458.22;4950717;28;20405;-45
2022/10/29 01:26:47;;;;;;;19.77;4.05;;;;;;;12.16;100.00;100447.94;4986498;28;20050;-44
2022/10/29 01:29:52;;;;;;;19.75;3.60;;;;;;;12.16;100.00;100453.47;4953247;28;20524;-43
2022/10/29 01:32:40;;;;;;;28.65;5.35;;;;;;;12.16;100.00;100452.66;4950239;28;20560;-44
2022/10/29 01:35:21;;;;;;;23.20;6.90;;;;;;;12.16;100.00;100447.13;4950810;28;20078;-43
2022/10/29 01:38:06;;;;;;;29.95;4.88;;;;;;;12.15;100.00;100437.19;4948994;29;20047;-43
2022/10/29 01:40:33;;;;;;;26.23;3.83;;;;;;;12.16;100.00;100430.47;4942015;29;20044;-44
2022/10/29 01:43:10;;;;;;;30.95;6.13;;;;;;;12.16;100.00;100414.63;4950627;28;20039;-43
2022/10/29 01:46:06;;;;;;;24.88;6.97;;;;;;;12.18;100.00;100405.91;4950841;28;20138;-43
2022/10/29 01:48:36;;;;;;;18.30;3.75;;;;;;;12.17;100.00;100398.78;4957485;28;20063;-43
2022/10/29 01:51:10;;;;;;;26.05;4.05;;;;;;;12.19;100.00;100396.44;4950671;28;20458;-44
2022/10/29 01:53:38;;;;;;;31.08;5.60;;;;;;;12.21;100.00;100402.41;4950269;28;20441;-44
2022/10/29 01:56:05;;;;;;;19.48;3.80;;;;;;;12.23;100.00;100400.09;4950235;28;20048;-44
2022/10/29 01:58:34;;;;;;;27.90;4.40;;;;;;;12.27;100.00;100398.19;4950796;28;20409;-44
2022/10/29 02:01:22;;;;;;;25.98;4.57;;;;;;;12.30;100.00;100394.69;4960015;28;20043;-43
2022/10/29 02:04:03;;;;;;;22.05;3.78;;;;;;;12.34;100.00;100389.22;4950192;28;20063;-43
2022/10/29 02:06:47;;;;;;;25.50;4.60;;;;;;;12.38;100.00;100384.53;4938543;28;20047;-43
2022/10/29 02:09:30;;;;;;;29.27;4.20;;;;;;;12.39;100.00;100375.81;4947381;28;20043;-48
2022/10/29 02:12:16;;;;;;;22.42;4.07;;;;;;;12.42;100.00;100371.50;4948755;28;20039;-44
2022/10/29 02:15:06;;;;;;;22.02;3.70;;;;;;;12.42;100.00;100375.09;4950298;28;20051;-44
2022/10/29 02:17:34;;;;;;;21.85;5.15;;;;;;;12.42;100.00;100369.53;4950954;28;20106;-43
2022/10/29 02:20:06;;;;;;;28.08;5.72;;;;;;;12.43;100.00;100373.13;4950341;28;20043;-47
2022/10/29 02:22:33;;;;;;;27.33;3.50;;;;;;;12.44;100.00;100355.31;4950097;28;20039;-43
2022/10/29 02:25:00;;;;;;;23.95;4.22;;;;;;;12.44;100.00;100353.34;4949645;28;20481;-44
2022/10/29 02:27:27;;;;;;;24.77;4.22;;;;;;;12.44;100.00;100364.44;4949337;28;20047;-44
2022/10/29 02:29:53;;;;;;;26.42;4.55;;;;;;;12.44;100.00;100369.19;4949208;28;20054;-43
2022/10/29 02:32:20;;;;;;;21.27;4.65;;;;;;;12.43;100.00;100370.34;4948988;29;20055;-44
2022/10/29 02:34:47;;;;;;;25.27;4.70;;;;;;;12.43;100.00;100370.34;4950417;28;20055;-44
2022/10/29 02:37:13;;;;;;;21.45;4.22;;;;;;;12.43;100.00;100365.63;4950259;28;20179;-43
2022/10/29 02:39:40;;;;;;;19.58;5.65;;;;;;;12.43;100.00;100357.28;4947616;28;20051;-51
2022/10/29 02:42:07;;;;;;;28.65;4.53;;;;;;;12.42;100.00;100352.88;4949323;28;20114;-44
2022/10/29 02:44:33;;;;;;;28.75;3.83;;;;;;;12.42;100.00;100350.09;4954094;28;20412;-46
2022/10/29 02:47:00;;;;;;;24.85;4.22;;;;;;;12.40;100.00;100335.81;4953941;28;20055;-44
2022/10/29 02:49:27;;;;;;;22.98;4.65;;;;;;;12.41;100.00;100339.38;4953960;28;20055;-44
2022/10/29 02:51:53;;;;;;;31.42;4.47;;;;;;;12.39;100.00;100323.06;4953706;28;20035;-48
2022/10/29 02:54:20;;;;;;;30.38;3.80;;;;;;;12.39;100.00;100331.41;4953228;28;20055;-44
2022/10/29 02:56:47;;;;;;;22.50;4.60;;;;;;;12.39;100.00;100328.63;4952562;28;20054;-43
2022/10/29 02:59:13;;;;;;;19.13;4.55;;;;;;;12.40;100.00;100330.25;4949968;28;20131;-44
2022/10/29 03:01:40;;;;;;;23.73;4.60;;;;;;;12.40;100.00;100316.38;5024766;23;20055;-47
2022/10/29 03:04:07;;;;;;;28.88;4.68;;;;;;;12.40;100.00;100319.16;4933296;29;20094;-44
2022/10/29 03:06:33;;;;;;;27.50;4.05;;;;;;;12.43;100.00;100329.53;4934557;29;20524;-44
2022/10/29 03:09:00;;;;;;;36.55;5.95;;;;;;;12.42;100.00;100327.09;4934345;29;20044;-48
2022/10/29 03:11:27;;;;;;;24.15;3.80;;;;;;;12.41;100.00;100323.53;4934101;29;20051;-44
2022/10/29 03:13:53;;;;;;;22.08;5.88;;;;;;;12.42;100.00;100322.34;4935031;29;20066;-44
2022/10/29 03:16:20;;;;;;;24.33;3.80;;;;;;;12.43;100.00;100318.41;4934628;29;20052;-44
2022/10/29 03:18:47;;;;;;;24.63;4.30;;;;;;;12.45;100.00;100312.47;4934064;29;20402;-44
2022/10/29 03:21:13;;;;;;;29.70;3.75;;;;;;;12.43;100.00;100307.31;4934209;29;20043;-44
2022/10/29 03:23:40;;;;;;;30.02;4.60;;;;;;;12.45;100.00;100307.72;4934036;29;20062;-43
2022/10/29 03:26:09;;;;;;;30.70;5.07;;;;;;;12.46;100.00;100305.78;4932002;29;20055;-43
2022/10/29 03:28:37;;;;;;;32.22;6.03;;;;;;;12.45;100.00;100299.41;4933069;29;20048;-44
2022/10/29 03:31:04;;;;;;;34.00;6.50;;;;;;;12.49;100.00;100296.72;4934478;29;20059;-47
2022/10/29 03:33:30;;;;;;;32.13;6.53;;;;;;;12.51;100.00;100297.94;4925961;29;20044;-44
2022/10/29 03:35:58;;;;;;;26.83;4.35;;;;;;;12.54;100.00;100296.41;4915228;29;20147;-46
2022/10/29 03:38:25;;;;;;;31.40;5.20;;;;;;;12.54;100.00;100293.63;4926115;29;20098;-45
2022/10/29 03:40:52;;;;;;;28.00;4.53;;;;;;;12.54;100.00;100291.66;4933872;29;20058;-43
2022/10/29 03:43:19;;;;;;;36.30;5.20;;;;;;;12.54;100.00;100286.09;4933634;29;20054;-43
2022/10/29 03:45:53;;;;;;;32.03;7.78;;;;;;;12.55;100.00;100273.81;4933663;29;20051;-45
2022/10/29 03:48:22;;;;;;;31.60;5.15;;;;;;;12.55;100.00;100270.25;4933872;29;20115;-44
2022/10/29 03:50:56;;;;;;;37.75;5.18;;;;;;;12.55;100.00;100257.13;4933819;29;20055;-43
2022/10/29 03:53:23;;;;;;;29.40;6.18;;;;;;;12.57;100.00;100254.00;4933773;29;20047;-50
2022/10/29 03:55:51;;;;;;;25.13;4.53;;;;;;;12.58;100.00;100248.06;4933114;29;20058;-43
2022/10/29 03:58:19;;;;;;;24.33;4.90;;;;;;;12.57;100.00;100243.72;4934206;29;20075;-44
2022/10/29 04:01:12;;;;;;;31.30;4.65;;;;;;;12.60;100.00;100229.06;4920486;29;20462;-45
2022/10/29 04:03:41;;;;;;;21.80;4.53;;;;;;;12.61;100.00;100239.00;4923114;29;20059;-43
2022/10/29 04:06:11;;;;;;;30.52;4.90;;;;;;;12.64;100.00;100235.50;4933784;29;20060;-51
2022/10/29 04:08:38;;;;;;;24.40;4.15;;;;;;;12.66;100.00;100221.22;4932610;29;20043;-43
2022/10/29 04:11:04;;;;;;;28.60;5.97;;;;;;;12.67;100.00;100231.97;4933805;29;20052;-43
2022/10/29 04:13:31;;;;;;;22.98;3.90;;;;;;;12.70;100.00;100209.00;4932155;29;20043;-44
2022/10/29 04:15:58;;;;;;;29.40;5.47;;;;;;;12.74;100.00;100201.53;4933291;29;20058;-44
2022/10/29 04:18:24;;;;;;;34.65;6.10;;;;;;;12.77;100.00;100194.41;4933115;29;20486;-44
2022/10/29 04:20:52;;;;;;;27.58;4.45;;;;;;;12.79;100.00;100184.53;4932864;29;20059;-44
2022/10/29 04:23:39;;;;;;;31.70;7.07;;;;;;;12.80;100.00;100166.72;4919139;29;20324;-44
2022/10/29 04:26:25;;;;;;;42.92;5.93;;;;;;;12.82;100.00;100169.91;4931612;29;20039;-44
2022/10/29 04:29:12;;;;;;;49.00;8.77;;;;;;;12.82;100.00;100163.53;4932310;29;20039;-44
2022/10/29 04:31:39;;;;;;;38.13;6.55;;;;;;;12.82;100.00;100163.53;4932995;29;20051;-44
2022/10/29 04:34:05;;;;;;;35.58;5.25;;;;;;;12.80;100.00;100165.91;4932746;29;20417;-43
2022/10/29 04:36:32;;;;;;;32.08;6.13;;;;;;;12.79;100.00;100153.97;4932186;29;20039;-43
2022/10/29 04:38:59;;;;;;;27.92;4.88;;;;;;;12.80;100.00;100174.22;4933095;29;20052;-45
2022/10/29 04:41:25;;;;;;;30.65;4.90;;;;;;;12.79;100.00;100161.50;4932621;29;20051;-43
2022/10/29 04:43:52;;;;;;;27.33;4.80;;;;;;;12.80;100.00;100147.25;4932392;29;20051;-44
2022/10/29 04:46:19;;;;;;;31.08;4.05;;;;;;;12.80;100.00;100150.03;4932420;29;20498;-43
2022/10/29 04:48:45;;;;;;;23.70;4.32;;;;;;;12.78;100.00;100146.84;4932396;29;20051;-43
2022/10/29 04:51:24;;;;;;;34.72;5.38;;;;;;;12.78;100.00;100157.16;4932579;29;20505;-51
2022/10/29 04:53:50;;;;;;;22.75;4.65;;;;;;;12.76;100.00;100160.28;4932333;29;20051;-44
2022/10/29 04:56:17;;;;;;;30.75;5.15;;;;;;;12.75;100.00;100164.25;4932385;28;20044;-43
2022/10/29 04:58:45;;;;;;;26.80;4.53;;;;;;;12.74;100.00;100165.41;4929871;29;20409;-44
2022/10/29 05:01:12;;;;;;;27.48;5.85;;;;;;;12.74;100.00;100159.06;4932115;29;20051;-43
2022/10/29 05:03:39;;;;;;;32.42;5.78;;;;;;;12.73;100.00;100171.34;4932274;29;20051;-49
2022/10/29 05:06:06;;;;;;;25.15;6.68;;;;;;;12.73;100.00;100171.34;4931430;29;20525;-47
2022/10/29 05:08:33;;;;;;;27.33;4.85;;;;;;;12.73;100.00;100165.81;4930579;29;20043;-44
2022/10/29 05:11:04;;;;;;;26.00;3.97;;;;;;;12.73;100.00;100171.34;4932827;29;20086;-43
2022/10/29 05:13:31;;;;;;;37.53;6.00;;;;;;;12.72;100.00;100161.41;4932117;29;20054;-45
2022/10/29 05:15:58;;;;;;;29.10;4.88;;;;;;;12.71;100.00;100157.81;4932246;29;20048;-43
2022/10/29 05:18:25;;;;;;;30.10;5.30;;;;;;;12.71;100.00;100152.28;4931622;29;20043;-43
2022/10/29 05:20:56;;;;;;;38.40;6.15;;;;;;;12.71;100.00;100141.16;4931866;29;20628;-43
2022/10/29 05:23:23;;;;;;;32.15;5.35;;;;;;;12.70;100.00;100142.34;4931068;29;20051;-43
2022/10/29 05:25:50;;;;;;;37.00;6.53;;;;;;;12.69;100.00;100129.63;4932085;29;20071;-44
2022/10/29 05:28:20;;;;;;;35.08;4.97;;;;;;;12.68;100.00;100130.03;4931482;29;20044;-44
2022/10/29 05:30:49;;;;;;;40.30;6.53;;;;;;;12.66;100.00;100122.03;4931646;29;20047;-44
2022/10/29 05:33:18;;;;;;;29.45;5.75;;;;;;;12.64;100.00;100118.84;4931648;29;20039;-43
2022/10/29 05:35:46;;;;;;;38.22;4.15;;;;;;;12.63;100.00;100117.22;4931677;29;20054;-42
2022/10/29 05:38:13;;;;;;;23.13;6.07;;;;;;;12.61;100.00;100105.72;4931918;29;20043;-42
2022/10/29 05:40:41;;;;;;;28.58;4.72;;;;;;;12.59;100.00;100105.28;4931975;29;20508;-43
2022/10/29 05:43:08;;;;;;;33.13;6.40;;;;;;;12.57;100.00;100099.31;4931337;29;20050;-45
2022/10/29 05:45:35;;;;;;;21.67;4.25;;;;;;;12.55;100.00;100093.31;4932139;29;20058;-43
2022/10/29 05:48:03;;;;;;;32.55;5.20;;;;;;;12.53;100.00;100095.66;4931717;29;20044;-42
2022/10/29 05:50:31;;;;;;;32.05;5.00;;;;;;;12.50;100.00;100093.63;4931352;29;20131;-44
2022/10/29 05:53:00;;;;;;;38.13;7.60;;;;;;;12.50;100.00;100088.09;4930900;29;20446;-43
2022/10/29 05:55:28;;;;;;;20.77;4.80;;;;;;;12.49;100.00;100100.38;4931214;29;20529;-43
2022/10/29 05:58:00;;;;;;;28.05;5.05;;;;;;;12.47;100.00;100096.38;4930648;29;20413;-43
2022/10/29 06:00:28;;;;;;;29.30;4.38;;;;;;;12.44;100.00;100092.38;4931864;29;20051;-43
2022/10/29 06:02:55;;;;;;;38.22;6.57;;;;;;;12.43;100.00;100079.66;4931435;29;20089;-44
2022/10/29 06:05:22;;;;;;;21.27;4.10;;;;;;;12.42;100.00;100082.78;4931490;29;20051;-44
2022/10/29 06:07:59;;;;;;;54.88;6.28;;;;;;;12.39;100.00;100062.13;4931412;29;20052;-45
2022/10/29 06:10:28;;;;;;;38.20;4.55;;;;;;;12.39;100.00;100069.69;4930830;29;20048;-43
2022/10/29 06:12:55;;;;;;;32.80;4.30;;;;;;;12.38;100.00;100066.09;4931230;29;20163;-43
2022/10/29 06:15:22;;;;;;;33.25;3.83;;;;;;;12.36;100.00;100065.69;4929282;29;20055;-43
2022/10/29 06:17:49;;;;;;;26.63;3.60;;;;;;;12.32;100.00;100050.94;4932251;29;20082;-43
2022/10/29 06:20:19;;;;;;;23.42;3.35;;;;;;;12.30;100.00;100058.84;4935553;29;20043;-42
2022/10/29 06:22:47;;;;;;;21.75;3.55;;;;;;;12.25;100.00;100061.94;4934501;29;20052;-45
2022/10/29 06:25:13;;;;;;;18.40;3.15;;;;;;;12.20;100.00;100043.59;4934901;29;20518;-42
2022/10/29 06:27:40;;;;;;;19.70;4.03;;;;;;;12.19;100.00;100057.88;4934895;29;20058;-42
2022/10/29 06:30:07;;;;;;;20.10;5.97;;;;;;;12.19;100.00;100035.66;4934409;29;20098;-42
2022/10/29 06:32:34;;;;;;;28.05;4.10;;;;;;;12.20;100.00;100037.28;4949650;28;20058;-42
2022/10/29 06:35:00;;;;;;;32.40;5.22;;;;;;;12.19;100.00;100030.91;4934688;29;20044;-43
2022/10/29 06:37:28;;;;;;;23.67;4.82;;;;;;;12.19;100.00;100035.66;4935269;29;20051;-42
2022/10/29 06:39:55;;;;;;;33.08;4.95;;;;;;;12.17;100.00;100035.25;4933876;29;20055;-43
2022/10/29 06:42:21;;;;;;;33.08;5.88;;;;;;;12.19;100.00;100024.56;4934797;29;20056;-47
2022/10/29 06:44:48;;;;;;;18.73;5.28;;;;;;;12.17;100.00;100013.84;4934544;29;20039;-42
2022/10/29 06:47:15;;;;;;;24.42;4.72;;;;;;;12.19;100.00;100013.47;4934609;29;20056;-42
2022/10/29 06:49:41;;;;;;;20.58;4.38;;;;;;;12.19;100.00;100002.38;4934666;29;20040;-42
2022/10/29 06:52:08;;;;;;;32.30;4.07;;;;;;;12.18;100.00;100003.53;4934509;29;20444;-43
2022/10/29 06:54:36;;;;;;;38.33;7.18;;;;;;;12.19;100.00;99988.50;4935243;29;20402;-43
2022/10/29 06:57:03;;;;;;;26.75;5.60;;;;;;;12.19;100.00;99982.94;4934467;29;20110;-42
2022/10/29 06:59:29;;;;;;;16.75;3.92;;;;;;;12.17;100.00;99980.56;4934315;29;20046;-43
2022/10/29 07:01:56;;;;;;;21.05;3.85;;;;;;;12.17;100.00;99976.97;4934333;29;20170;-49
2022/10/29 07:04:23;;;;;;;29.83;5.35;;;;;;;12.16;100.00;99969.81;4934592;29;20090;-42
2022/10/29 07:06:49;;;;;;;18.00;3.67;;;;;;;12.16;100.00;99972.59;4934495;29;20409;-43
2022/10/29 07:09:16;;;;;;;18.30;3.63;;;;;;;12.14;100.00;99972.16;4934272;29;20047;-41
2022/10/29 07:11:43;;;;;;;22.38;3.22;;;;;;;12.06;100.00;99973.22;4933888;29;20055;-43
2022/10/29 07:14:09;;;;;;;15.02;3.58;;;;;;;12.01;100.00;99976.34;4934715;29;20379;-42
2022/10/29 07:16:36;;;;;;;20.50;3.45;;;;;;;11.97;100.00;99972.69;4932246;29;20068;-43
2022/10/29 07:19:03;;;;;;;22.45;4.00;;;;;;;11.96;100.00;99973.88;4933528;29;20070;-43
2022/10/29 07:21:30;;;;;;;17.52;3.92;;;;;;;11.94;100.00;99965.13;4933162;29;20044;-43
2022/10/29 07:23:57;;;;;;;23.45;3.70;;;;;;;11.94;100.00;99940.94;4930864;29;20047;-43
2022/10/29 07:26:24;;;;;;;24.02;3.85;;;;;;;11.95;100.00;99931.47;4934174;29;20043;-42
2022/10/29 07:28:55;;;;;;;20.25;4.30;;;;;;;11.96;100.00;99932.28;4934145;29;20382;-43
2022/10/29 07:31:22;;;;;;;19.90;3.90;;;;;;;11.96;100.00;99932.28;4933985;29;20055;-50
2022/10/29 07:33:49;;;;;;;14.77;2.35;;;;;;;11.91;100.00;99947.25;4932304;29;20438;-42
2022/10/29 07:36:15;;;;;;;12.07;1.90;;;;;;;11.86;100.00;99928.16;4932368;29;20628;-43
2022/10/29 07:38:42;;;;;;;7.15;1.50;;;;;;;11.75;100.00;99923.63;4932687;29;20043;-43
2022/10/29 07:41:09;;;;;;;9.15;1.30;;;;;;;11.69;100.00;99916.78;4933341;29;20048;-43
2022/10/29 07:43:35;;;;;;;7.30;1.40;;;;;;;11.64;100.00;99909.56;4933755;29;20102;-43
2022/10/29 07:46:10;;;;;;;6.00;1.52;;;;;;;11.58;100.00;99911.84;4934175;29;20078;-43
2022/10/29 07:48:37;;;;;;;5.00;2.15;;;;;;;11.51;100.00;99899.84;4948253;29;20043;-43
2022/10/29 07:51:05;;;;;;;8.90;1.65;;;;;;;11.47;100.00;99905.34;4933813;29;20080;-43
2022/10/29 07:53:32;;;;;;;5.47;2.00;;;;;;;11.45;100.00;99904.09;4933552;29;20056;-43
2022/10/29 07:55:58;;;;;;;12.25;1.23;;;;;;;11.42;100.00;99885.44;4932575;29;20099;-42
2022/10/29 07:58:25;;;;;;;6.95;1.17;;;;;;;11.39;100.00;99891.72;4926763;29;20056;-42
2022/10/29 08:00:52;;;;;;;6.63;1.02;;;;;;;11.38;100.00;99881.84;4933369;29;20311;-49
2022/10/29 08:03:19;;;;;;;7.03;1.33;;;;;;;11.31;100.00;99879.72;4920759;29;20121;-43
2022/10/29 08:05:48;;;;;;;7.93;1.17;;;;;;;11.25;100.00;99872.88;4932535;29;20051;-42
2022/10/29 08:08:22;;;;;;;7.15;1.55;;;;;;;11.19;100.00;99870.81;4921183;29;20098;-43
2022/10/29 08:10:48;;;;;;;9.05;1.17;;;;;;;11.14;100.00;99863.63;4932988;29;20051;-42
2022/10/29 08:13:15;;;;;;;7.55;1.13;;;;;;;11.12;100.00;99859.63;4932793;29;20498;-42
2022/10/29 08:15:45;;;;;;;5.75;1.33;;;;;;;11.10;100.00;99848.91;4932346;29;20040;-42
2022/10/29 08:18:16;;;;;;;6.07;1.48;;;;;;;11.08;100.00;99845.72;4945955;28;20185;-47
2022/10/29 08:20:44;;;;;;;10.65;1.83;;;;;;;11.09;100.00;99839.00;4932450;29;20498;-43
2022/10/29 08:23:12;;;;;;;7.05;1.05;;;;;;;11.12;100.00;99837.47;4932749;29;20052;-41
2022/10/29 08:25:42;;;;;;;8.65;1.60;;;;;;;11.14;100.00;99833.16;4932744;29;20046;-42
2022/10/29 08:28:11;;;;;;;8.70;1.48;;;;;;;11.18;100.00;99828.44;4933073;29;20047;-42
2022/10/29 08:30:39;;;;;;;12.35;2.30;;;;;;;11.19;100.00;99820.94;4932829;29;20052;-42
2022/10/29 08:33:06;;;;;;;14.18;1.90;;;;;;;11.21;100.00;99824.94;4932566;29;20051;-43
2022/10/29 08:35:33;;;;;;;18.10;2.97;;;;;;;11.24;100.00;99813.13;4933186;29;20052;-43
2022/10/29 08:38:00;;;;;;;11.18;1.33;;;;;;;11.25;100.00;99814.72;4931512;29;20111;-42
2022/10/29 08:40:45;;;;;;;4.13;0.93;;;;;;;11.27;100.00;99817.94;4932856;29;20075;-42
2022/10/29 08:43:21;;;;;;;11.05;2.60;;;;;;;11.29;100.00;99815.56;4932645;29;20047;-42
2022/10/29 08:45:50;;;;;;;15.32;2.78;;;;;;;11.30;100.00;99814.41;4932249;29;20581;-45
2022/10/29 08:48:32;;;;;;;15.77;2.15;;;;;;;11.30;100.00;99816.38;4919583;29;20167;-47
2022/10/29 08:51:36;;;;;;;11.77;1.65;;;;;;;11.26;100.00;99799.69;4926466;29;20048;-42
2022/10/29 08:54:03;;;;;;;9.25;1.35;;;;;;;11.21;100.00;99786.16;4938125;29;20099;-42
2022/10/29 08:56:56;;;;;;;6.75;1.15;;;;;;;11.18;100.00;99775.00;4932610;29;20048;-42
2022/10/29 08:59:25;;;;;;;9.73;1.70;;;;;;;11.16;100.00;99783.72;4931943;29;20502;-42
2022/10/29 09:01:52;;;;;;;10.63;1.70;;;;;;;11.14;100.00;99786.06;4918821;29;20051;-44
2022/10/29 09:04:34;;;;;;;13.25;1.98;;;;;;;11.14;100.00;99774.16;4930571;29;20055;-41
2022/10/29 09:07:25;;;;;;;10.05;1.42;;;;;;;11.13;100.00;99770.59;4931244;29;20044;-42
2022/10/29 09:10:15;;;;;;;9.45;3.35;;;;;;;11.16;100.00;99767.09;4932499;29;20059;-41
2022/10/29 09:13:17;;;;;;;6.93;1.55;;;;;;;11.18;100.00;99772.25;4930905;29;20103;-42
2022/10/29 09:15:53;;;;;;;16.50;3.10;;;;;;;11.20;100.00;99765.16;4931533;29;20075;-42
2022/10/29 09:18:54;;;;;;;10.57;2.55;;;;;;;11.26;100.00;99760.09;4931940;29;20517;-43
2022/10/29 09:21:51;;;;;;;11.27;2.85;;;;;;;11.31;100.00;99752.25;4931966;29;20425;-43
2022/10/29 09:24:48;;;;;;;13.05;2.70;;;;;;;11.38;100.00;99730.22;4931815;29;20043;-45
2022/10/29 09:27:34;;;;;;;14.52;2.42;;;;;;;11.44;100.00;99720.38;4932243;29;20090;-42
2022/10/29 09:30:09;;;;;;;11.10;2.00;;;;;;;11.49;100.00;99717.28;4931755;29;20054;-41
2022/10/29 09:32:58;;;;;;;15.20;2.42;;;;;;;11.59;100.00;99701.97;4931754;29;20099;-46
2022/10/29 09:35:37;;;;;;;9.23;2.40;;;;;;;11.66;100.00;99695.69;4923912;29;20130;-42
2022/10/29 09:38:29;;;;;;;12.68;2.35;;;;;;;11.71;100.00;99687.06;4918517;29;20043;-41
2022/10/29 09:41:00;;;;;;;8.75;1.70;;;;;;;11.75;100.00;99683.19;4931939;29;20051;-41
2022/10/29 09:43:26;;;;;;;9.55;1.60;;;;;;;11.80;100.00;99676.50;4932134;29;20043;-42
2022/10/29 09:46:07;;;;;;;4.70;1.75;;;;;;;11.84;100.00;99674.53;4931213;29;20055;-42
2022/10/29 09:48:53;;;;;;;5.57;2.03;;;;;;;11.90;100.00;99668.28;4931485;29;20047;-41
2022/10/29 09:51:29;;;;;;;7.50;2.83;;;;;;;11.96;100.00;99668.75;4931544;29;20479;-41
2022/10/29 09:53:56;;;;;;;6.03;2.53;;;;;;;11.99;100.00;99648.56;4930869;29;20058;-42
2022/10/29 09:56:23;;;;;;;6.57;2.72;;;;;;;12.02;100.00;99643.03;4931455;29;20039;-42
2022/10/29 09:58:55;;;;;;;15.43;3.92;;;;;;;12.05;100.00;99628.41;4931267;29;20040;-47
2022/10/29 10:01:22;;;;;;;14.05;3.00;;;;;;;12.09;100.00;99615.38;4931610;29;20051;-43
2022/10/29 10:03:54;;;;;;;9.43;2.45;;;;;;;12.13;100.00;99605.09;4930345;29;20061;-48
2022/10/29 10:06:21;;;;;;;8.30;2.85;;;;;;;12.16;100.00;99598.00;4931619;29;20059;-41
2022/10/29 10:08:59;;;;;;;8.40;2.35;;;;;;;12.18;100.00;99590.88;4930606;29;20047;-42
2022/10/29 10:11:40;;;;;;;7.63;2.33;;;;;;;12.23;100.00;99586.97;4926794;29;20138;-44
2022/10/29 10:14:19;;;;;;;8.80;2.90;;;;;;;12.28;100.00;99571.94;4931512;29;20057;-42
2022/10/29 10:16:56;;;;;;;13.90;4.25;;;;;;;12.32;100.00;99570.78;4931460;29;20052;-42
2022/10/29 10:19:26;;;;;;;14.52;4.68;;;;;;;12.40;100.00;99558.53;4922790;29;20047;-41
2022/10/29 10:22:01;;;;;;;20.70;4.80;;;;;;;12.51;100.00;99548.31;4919982;29;20051;-44
2022/10/29 10:24:31;;;;;;;31.27;7.55;;;;;;;12.68;100.00;99542.03;4928137;29;20047;-44
2022/10/29 10:26:59;;;;;;;33.45;7.38;;;;;;;12.88;100.00;99538.97;4931665;29;20051;-43
2022/10/29 10:29:27;;;;;;;33.03;8.65;;;;;;;13.05;100.00;99554.94;4931119;29;20043;-46
2022/10/29 10:31:56;;;;;;;44.40;8.48;;;;;;;13.23;100.00;99553.84;4931307;29;20107;-44
2022/10/29 10:34:25;;;;;;;30.58;6.93;;;;;;;13.40;100.00;99555.09;4934804;29;20043;-44
2022/10/29 10:37:13;;;;;;;18.27;4.45;;;;;;;13.57;100.00;99542.41;4940521;28;20047;-44
2022/10/29 10:39:43;;;;;;;18.88;5.10;;;;;;;13.66;100.00;99534.50;4931080;29;20155;-44
2022/10/29 10:42:16;;;;;;;10.55;3.58;;;;;;;13.75;100.00;99532.13;4931283;29;20051;-44
2022/10/29 10:44:56;;;;;;;10.57;3.22;;;;;;;13.85;100.00;99548.00;4931008;29;20460;-43
2022/10/29 10:47:31;;;;;;;15.88;4.32;;;;;;;13.91;100.00;99541.69;4931075;29;20047;-43
2022/10/29 10:50:24;;;;;;;13.10;3.20;;;;;;;13.97;100.00;99544.88;4945524;28;20384;-43
2022/10/29 10:52:55;;;;;;;7.82;2.72;;;;;;;14.00;100.00;99539.28;4930021;29;20058;-43
2022/10/29 10:55:29;;;;;;;7.70;1.80;;;;;;;14.00;100.00;99544.84;4931235;29;20047;-42
2022/10/29 10:58:16;;;;;;;5.45;2.78;;;;;;;14.02;100.00;99528.56;4930904;29;20146;-49
2022/10/29 11:00:49;;;;;;;7.13;3.88;;;;;;;14.08;100.00;99550.44;4931015;29;20044;-44
2022/10/29 11:03:26;;;;;;;6.18;4.70;;;;;;;14.11;100.00;99550.41;4929702;29;20531;-42
2022/10/29 11:06:07;;;;;;;11.75;3.67;;;;;;;14.17;100.00;99545.25;4933522;29;20066;-43
2022/10/29 11:08:42;;;;;;;5.53;2.70;;;;;;;14.25;100.00;99539.28;4940122;29;20051;-42
2022/10/29 11:11:12;;;;;;;7.72;3.40;;;;;;;14.36;100.00;99533.72;4926138;29;20054;-42
2022/10/29 11:13:40;;;;;;;7.60;2.08;;;;;;;14.49;100.00;99523.75;4934228;29;20541;-45
2022/10/29 11:16:43;;;;;;;4.40;1.60;;;;;;;14.60;100.00;99528.13;4933103;29;20044;-42
2022/10/29 11:19:38;;;;;;;7.97;2.17;;;;;;;14.72;100.00;99524.09;4923484;29;20126;-42
2022/10/29 11:22:26;;;;;;;10.18;2.80;;;;;;;14.81;100.00;99516.13;4931855;29;20078;-41
2022/10/29 11:24:58;;;;;;;11.48;2.72;;;;;;;14.86;100.00;99500.97;4934339;29;20044;-47
2022/10/29 11:27:41;;;;;;;10.43;2.50;;;;;;;14.89;100.00;99489.03;4933599;29;20497;-42
2022/10/29 11:30:11;;;;;;;22.23;4.28;;;;;;;14.90;100.00;99485.84;4933816;29;20390;-42
2022/10/29 11:33:11;;;;;;;15.07;3.25;;;;;;;14.94;100.00;99486.59;4932744;29;20055;-42
2022/10/29 11:36:05;;;;;;;19.17;5.10;;;;;;;14.97;100.00;99480.22;4933024;29;20485;-41
2022/10/29 11:38:47;;;;;;;17.50;4.85;;;;;;;14.98;100.00;99467.91;4933442;29;20450;-41